GIA537 WAOO-WIII
Flight info
| Callsign | GIA537 |
|---|---|
| Flight time | 1h 16m |
| Altitude | 32000 |
| Route | DUNIA W18 AKSOX |
| Aircraft | B38M/M-SDE1FGHILORVWXY/HB1 |
Departure
| Time | 2026-04-15 21:12 |
|---|---|
| Airport | Syamsudin Noor International Airport (WAOO) |
Arrival
| Time | 2026-04-15 22:29 |
|---|---|
| Airport | Soekarno-Hatta International Airport (WIII) |
| Time | Latitude | Longitude | Altitude | Speed | Heading |
|---|---|---|---|---|---|
| 2026-04-15 20:56 | -3.43857 | 114.76054 | 77 ft | 0 kts | 11° |
| 2026-04-15 21:00 | -3.43874 | 114.76050 | 68 ft | 4 kts | 14° |
| 2026-04-15 21:00 | -3.43899 | 114.76042 | 69 ft | 4 kts | 25° |
| 2026-04-15 21:01 | -3.43921 | 114.76027 | 66 ft | 4 kts | 52° |
| 2026-04-15 21:01 | -3.43927 | 114.76010 | 68 ft | 1 kts | 100° |
| 2026-04-15 21:07 | -3.43929 | 114.76014 | 66 ft | 2 kts | 117° |
| 2026-04-15 21:07 | -3.43954 | 114.76010 | 71 ft | 7 kts | 222° |
| 2026-04-15 21:08 | -3.43997 | 114.75972 | 77 ft | 10 kts | 202° |
| 2026-04-15 21:08 | -3.44070 | 114.75956 | 70 ft | 12 kts | 191° |
| 2026-04-15 21:08 | -3.44158 | 114.75951 | 78 ft | 14 kts | 154° |
| 2026-04-15 21:08 | -3.44194 | 114.76047 | 84 ft | 17 kts | 99° |
| 2026-04-15 21:09 | -3.44215 | 114.76170 | 79 ft | 19 kts | 99° |
| 2026-04-15 21:09 | -3.44241 | 114.76308 | 81 ft | 21 kts | 102° |
| 2026-04-15 21:09 | -3.44273 | 114.76461 | 75 ft | 24 kts | 100° |
| 2026-04-15 21:09 | -3.44304 | 114.76634 | 77 ft | 26 kts | 100° |
| 2026-04-15 21:10 | -3.44335 | 114.76814 | 75 ft | 24 kts | 100° |
| 2026-04-15 21:10 | -3.44365 | 114.76986 | 75 ft | 27 kts | 101° |
| 2026-04-15 21:10 | -3.44400 | 114.77165 | 73 ft | 24 kts | 101° |
| 2026-04-15 21:10 | -3.44415 | 114.77302 | 78 ft | 18 kts | 76° |
| 2026-04-15 21:11 | -3.44430 | 114.77355 | 74 ft | 4 kts | 202° |
| 2026-04-15 21:11 | -3.44432 | 114.77347 | 76 ft | 1 kts | 275° |
| 2026-04-15 21:11 | -3.44422 | 114.77288 | 78 ft | 22 kts | 280° |
| 2026-04-15 21:11 | -3.44341 | 114.76845 | 72 ft | 104 kts | 280° |
| 2026-04-15 21:12 | -3.44168 | 114.75918 | 92 ft | 166 kts | 281° |
| 2026-04-15 21:12 | -3.43944 | 114.74710 | 672 ft | 181 kts | 281° |
| 2026-04-15 21:12 | -3.43706 | 114.73457 | 1477 ft | 189 kts | 277° |
| 2026-04-15 21:12 | -3.43658 | 114.72073 | 2009 ft | 212 kts | 269° |
| 2026-04-15 21:13 | -3.43687 | 114.70499 | 2514 ft | 239 kts | 270° |
| 2026-04-15 21:13 | -3.43708 | 114.68777 | 3206 ft | 256 kts | 270° |
| 2026-04-15 21:13 | -3.43726 | 114.66950 | 3994 ft | 267 kts | 270° |
| 2026-04-15 21:13 | -3.43741 | 114.65090 | 5041 ft | 268 kts | 270° |
| 2026-04-15 21:14 | -3.43753 | 114.63219 | 6043 ft | 271 kts | 270° |
| 2026-04-15 21:14 | -3.43765 | 114.61315 | 6958 ft | 275 kts | 271° |
| 2026-04-15 21:14 | -3.43777 | 114.59390 | 7866 ft | 278 kts | 271° |
| 2026-04-15 21:14 | -3.43788 | 114.57438 | 8769 ft | 282 kts | 271° |
| 2026-04-15 21:15 | -3.43800 | 114.55465 | 9667 ft | 286 kts | 271° |
| 2026-04-15 21:15 | -3.43812 | 114.53453 | 10383 ft | 296 kts | 271° |
| 2026-04-15 21:15 | -3.43824 | 114.51329 | 10811 ft | 315 kts | 271° |
| 2026-04-15 21:15 | -3.43837 | 114.49091 | 11337 ft | 328 kts | 271° |
| 2026-04-15 21:16 | -3.43850 | 114.46795 | 12153 ft | 330 kts | 271° |
| 2026-04-15 21:16 | -3.43864 | 114.44482 | 12946 ft | 335 kts | 271° |
| 2026-04-15 21:16 | -3.43877 | 114.42137 | 13742 ft | 339 kts | 271° |
| 2026-04-15 21:16 | -3.43891 | 114.39767 | 14438 ft | 343 kts | 271° |
| 2026-04-15 21:17 | -3.43905 | 114.37365 | 15091 ft | 348 kts | 270° |
| 2026-04-15 21:17 | -3.43919 | 114.34929 | 15742 ft | 353 kts | 270° |
| 2026-04-15 21:17 | -3.43933 | 114.32460 | 16387 ft | 357 kts | 270° |
| 2026-04-15 21:17 | -3.43947 | 114.29955 | 17015 ft | 362 kts | 270° |
| 2026-04-15 21:18 | -3.43961 | 114.27423 | 17635 ft | 366 kts | 269° |
| 2026-04-15 21:18 | -3.44045 | 114.24862 | 18224 ft | 371 kts | 262° |
| 2026-04-15 21:18 | -3.44500 | 114.22312 | 18719 ft | 375 kts | 259° |
| 2026-04-15 21:18 | -3.44967 | 114.19730 | 19249 ft | 378 kts | 259° |
| 2026-04-15 21:19 | -3.45434 | 114.17135 | 19755 ft | 381 kts | 259° |
| 2026-04-15 21:19 | -3.45905 | 114.14510 | 20268 ft | 385 kts | 259° |
| 2026-04-15 21:19 | -3.46381 | 114.11863 | 20781 ft | 388 kts | 258° |
| 2026-04-15 21:19 | -3.46859 | 114.09196 | 21283 ft | 391 kts | 258° |
| 2026-04-15 21:20 | -3.47342 | 114.06501 | 21789 ft | 395 kts | 258° |
| 2026-04-15 21:20 | -3.47829 | 114.03789 | 22292 ft | 398 kts | 258° |
| 2026-04-15 21:20 | -3.48320 | 114.01051 | 22788 ft | 401 kts | 258° |
| 2026-04-15 21:20 | -3.48815 | 113.98289 | 23264 ft | 405 kts | 258° |
| 2026-04-15 21:21 | -3.49307 | 113.95542 | 23697 ft | 408 kts | 258° |
| 2026-04-15 21:21 | -3.49817 | 113.92696 | 24117 ft | 411 kts | 258° |
| 2026-04-15 21:21 | -3.50317 | 113.89907 | 24521 ft | 414 kts | 258° |
| 2026-04-15 21:21 | -3.50827 | 113.87058 | 24930 ft | 417 kts | 257° |
| 2026-04-15 21:22 | -3.51342 | 113.84184 | 25351 ft | 420 kts | 257° |
| 2026-04-15 21:22 | -3.51859 | 113.81296 | 25752 ft | 423 kts | 257° |
| 2026-04-15 21:22 | -3.52380 | 113.78386 | 26153 ft | 426 kts | 257° |
| 2026-04-15 21:22 | -3.52905 | 113.75455 | 26554 ft | 430 kts | 257° |
| 2026-04-15 21:23 | -3.53434 | 113.72498 | 26947 ft | 433 kts | 257° |
| 2026-04-15 21:23 | -3.53975 | 113.69526 | 27335 ft | 435 kts | 255° |
| 2026-04-15 21:23 | -3.54971 | 113.66689 | 27693 ft | 432 kts | 238° |
| 2026-04-15 21:23 | -3.56656 | 113.64206 | 28059 ft | 432 kts | 230° |
| 2026-04-15 21:24 | -3.58491 | 113.61808 | 28391 ft | 436 kts | 229° |
| 2026-04-15 21:24 | -3.60366 | 113.59413 | 28772 ft | 438 kts | 229° |
| 2026-04-15 21:24 | -3.62266 | 113.57016 | 29137 ft | 441 kts | 228° |
| 2026-04-15 21:24 | -3.64185 | 113.54617 | 29492 ft | 443 kts | 228° |
| 2026-04-15 21:25 | -3.66122 | 113.52202 | 29847 ft | 446 kts | 228° |
| 2026-04-15 21:25 | -3.68076 | 113.49770 | 30164 ft | 449 kts | 228° |
| 2026-04-15 21:25 | -3.70033 | 113.47333 | 30453 ft | 451 kts | 228° |
| 2026-04-15 21:25 | -3.72006 | 113.44877 | 30761 ft | 453 kts | 228° |
| 2026-04-15 21:26 | -3.73988 | 113.42410 | 31056 ft | 456 kts | 229° |
| 2026-04-15 21:26 | -3.75977 | 113.39933 | 31340 ft | 458 kts | 229° |
| 2026-04-15 21:26 | -3.77977 | 113.37444 | 31636 ft | 460 kts | 229° |
| 2026-04-15 21:26 | -3.79992 | 113.34935 | 31864 ft | 463 kts | 229° |
| 2026-04-15 21:27 | -3.82022 | 113.32408 | 31890 ft | 468 kts | 229° |
| 2026-04-15 21:27 | -3.86095 | 113.27336 | 31881 ft | 467 kts | 229° |
| 2026-04-15 21:28 | -3.90178 | 113.22250 | 31882 ft | 469 kts | 229° |
| 2026-04-15 21:28 | -3.94269 | 113.17154 | 31881 ft | 469 kts | 229° |
| 2026-04-15 21:29 | -3.97125 | 113.12547 | 31873 ft | 473 kts | 248° |
| 2026-04-15 21:29 | -3.99327 | 113.06309 | 31876 ft | 476 kts | 248° |
| 2026-04-15 21:30 | -4.01497 | 113.00024 | 31877 ft | 477 kts | 249° |
| 2026-04-15 21:30 | -4.03645 | 112.93738 | 31881 ft | 477 kts | 249° |
| 2026-04-15 21:31 | -4.06865 | 112.84307 | 31877 ft | 477 kts | 249° |
| 2026-04-15 21:32 | -4.10083 | 112.74877 | 31876 ft | 477 kts | 249° |
| 2026-04-15 21:32 | -4.12230 | 112.68582 | 31876 ft | 477 kts | 249° |
| 2026-04-15 21:33 | -4.14376 | 112.62290 | 31875 ft | 477 kts | 249° |
| 2026-04-15 21:33 | -4.16519 | 112.56002 | 31879 ft | 477 kts | 249° |
| 2026-04-15 21:34 | -4.18665 | 112.49706 | 31881 ft | 477 kts | 249° |
| 2026-04-15 21:34 | -4.20809 | 112.43413 | 31878 ft | 477 kts | 249° |
| 2026-04-15 21:35 | -4.22949 | 112.37131 | 31876 ft | 477 kts | 249° |
| 2026-04-15 21:35 | -4.25089 | 112.30845 | 31876 ft | 477 kts | 249° |
| 2026-04-15 21:36 | -4.27217 | 112.24594 | 31875 ft | 477 kts | 249° |
| 2026-04-15 21:36 | -4.29359 | 112.18301 | 31875 ft | 477 kts | 249° |
| 2026-04-15 21:37 | -4.31498 | 112.12015 | 31879 ft | 477 kts | 249° |
| 2026-04-15 21:37 | -4.33639 | 112.05720 | 31873 ft | 477 kts | 249° |
| 2026-04-15 21:38 | -4.35780 | 111.99424 | 31870 ft | 477 kts | 249° |
| 2026-04-15 21:38 | -4.37919 | 111.93130 | 31874 ft | 478 kts | 249° |
| 2026-04-15 21:39 | -4.40060 | 111.86828 | 31873 ft | 477 kts | 249° |
| 2026-04-15 21:39 | -4.42199 | 111.80534 | 31872 ft | 477 kts | 249° |
| 2026-04-15 21:40 | -4.44338 | 111.74235 | 31878 ft | 478 kts | 249° |
| 2026-04-15 21:40 | -4.46478 | 111.67930 | 31875 ft | 478 kts | 249° |
| 2026-04-15 21:41 | -4.48618 | 111.61627 | 31874 ft | 478 kts | 249° |
| 2026-04-15 21:41 | -4.50757 | 111.55321 | 31876 ft | 478 kts | 249° |
| 2026-04-15 21:42 | -4.52895 | 111.49019 | 31876 ft | 478 kts | 249° |
| 2026-04-15 21:42 | -4.55032 | 111.42715 | 31876 ft | 478 kts | 249° |
| 2026-04-15 21:43 | -4.57169 | 111.36412 | 31870 ft | 478 kts | 249° |
| 2026-04-15 21:43 | -4.59307 | 111.30103 | 31875 ft | 478 kts | 249° |
| 2026-04-15 21:44 | -4.61439 | 111.23798 | 31874 ft | 478 kts | 250° |
| 2026-04-15 21:44 | -4.63478 | 111.17455 | 31872 ft | 478 kts | 250° |
| 2026-04-15 21:45 | -4.65522 | 111.11114 | 31869 ft | 478 kts | 250° |
| 2026-04-15 21:45 | -4.67568 | 111.04771 | 31872 ft | 478 kts | 250° |
| 2026-04-15 21:46 | -4.69613 | 110.98427 | 31871 ft | 478 kts | 250° |
| 2026-04-15 21:46 | -4.71658 | 110.92082 | 31872 ft | 478 kts | 250° |
| 2026-04-15 21:47 | -4.73703 | 110.85734 | 31873 ft | 478 kts | 250° |
| 2026-04-15 21:47 | -4.75746 | 110.79391 | 31874 ft | 478 kts | 250° |
| 2026-04-15 21:48 | -4.77790 | 110.73042 | 31873 ft | 478 kts | 250° |
| 2026-04-15 21:48 | -4.79819 | 110.66738 | 31873 ft | 478 kts | 250° |
| 2026-04-15 21:49 | -4.81862 | 110.60390 | 31874 ft | 478 kts | 250° |
| 2026-04-15 21:49 | -4.83904 | 110.54039 | 31874 ft | 479 kts | 250° |
| 2026-04-15 21:50 | -4.85947 | 110.47685 | 31871 ft | 479 kts | 250° |
| 2026-04-15 21:50 | -4.87961 | 110.41326 | 31873 ft | 479 kts | 251° |
| 2026-04-15 21:51 | -4.89914 | 110.34933 | 31873 ft | 479 kts | 251° |
| 2026-04-15 21:51 | -4.91872 | 110.28546 | 31873 ft | 479 kts | 251° |
| 2026-04-15 21:52 | -4.93831 | 110.22158 | 31871 ft | 479 kts | 251° |
| 2026-04-15 21:52 | -4.95789 | 110.15769 | 31872 ft | 479 kts | 251° |
| 2026-04-15 21:53 | -4.97745 | 110.09383 | 31875 ft | 479 kts | 251° |
| 2026-04-15 21:53 | -4.99701 | 110.02996 | 31875 ft | 479 kts | 251° |
| 2026-04-15 21:54 | -5.01656 | 109.96609 | 31881 ft | 479 kts | 251° |
| 2026-04-15 21:54 | -5.03606 | 109.90238 | 31877 ft | 477 kts | 251° |
| 2026-04-15 21:55 | -5.05550 | 109.83881 | 31877 ft | 477 kts | 251° |
| 2026-04-15 21:55 | -5.07495 | 109.77517 | 31878 ft | 477 kts | 251° |
| 2026-04-15 21:56 | -5.09440 | 109.71158 | 31878 ft | 477 kts | 251° |
| 2026-04-15 21:56 | -5.11370 | 109.64840 | 31881 ft | 477 kts | 251° |
| 2026-04-15 21:57 | -5.13312 | 109.58482 | 31882 ft | 477 kts | 251° |
| 2026-04-15 21:57 | -5.15254 | 109.52122 | 31881 ft | 477 kts | 251° |
| 2026-04-15 21:58 | -5.17195 | 109.45762 | 31881 ft | 477 kts | 251° |
| 2026-04-15 21:58 | -5.19135 | 109.39400 | 31882 ft | 477 kts | 251° |
| 2026-04-15 21:59 | -5.21076 | 109.33036 | 31884 ft | 477 kts | 251° |
| 2026-04-15 21:59 | -5.23016 | 109.26672 | 31884 ft | 477 kts | 251° |
| 2026-04-15 22:00 | -5.24955 | 109.20308 | 31883 ft | 477 kts | 251° |
| 2026-04-15 22:00 | -5.26895 | 109.13939 | 31887 ft | 477 kts | 251° |
| 2026-04-15 22:01 | -5.28833 | 109.07574 | 31887 ft | 477 kts | 251° |
| 2026-04-15 22:01 | -5.30886 | 109.01253 | 31884 ft | 476 kts | 250° |
| 2026-04-15 22:02 | -5.32971 | 108.94950 | 31884 ft | 476 kts | 250° |
| 2026-04-15 22:02 | -5.35050 | 108.88649 | 31883 ft | 476 kts | 250° |
| 2026-04-15 22:03 | -5.37130 | 108.82339 | 31884 ft | 476 kts | 250° |
| 2026-04-15 22:03 | -5.39208 | 108.76034 | 31884 ft | 476 kts | 250° |
| 2026-04-15 22:04 | -5.41282 | 108.69740 | 31888 ft | 475 kts | 250° |
| 2026-04-15 22:04 | -5.43352 | 108.63455 | 31886 ft | 474 kts | 250° |
| 2026-04-15 22:05 | -5.45419 | 108.57178 | 31887 ft | 474 kts | 250° |
| 2026-04-15 22:05 | -5.47485 | 108.50899 | 31887 ft | 474 kts | 250° |
| 2026-04-15 22:06 | -5.49552 | 108.44616 | 31886 ft | 474 kts | 250° |
| 2026-04-15 22:06 | -5.51617 | 108.38337 | 31887 ft | 473 kts | 250° |
| 2026-04-15 22:07 | -5.53646 | 108.32166 | 31693 ft | 453 kts | 250° |
| 2026-04-15 22:07 | -5.54665 | 108.29251 | 31321 ft | 445 kts | 244° |
| 2026-04-15 22:07 | -5.56262 | 108.26613 | 30697 ft | 442 kts | 227° |
| 2026-04-15 22:07 | -5.58497 | 108.24543 | 30140 ft | 436 kts | 213° |
| 2026-04-15 22:08 | -5.60960 | 108.22773 | 29594 ft | 434 kts | 213° |
| 2026-04-15 22:08 | -5.63418 | 108.21032 | 29006 ft | 432 kts | 213° |
| 2026-04-15 22:08 | -5.65878 | 108.19317 | 28471 ft | 429 kts | 212° |
| 2026-04-15 22:08 | -5.68329 | 108.17627 | 27959 ft | 426 kts | 212° |
| 2026-04-15 22:09 | -5.70769 | 108.15952 | 27443 ft | 423 kts | 212° |
| 2026-04-15 22:09 | -5.73195 | 108.14290 | 26936 ft | 421 kts | 212° |
| 2026-04-15 22:09 | -5.75605 | 108.12640 | 26433 ft | 419 kts | 212° |
| 2026-04-15 22:09 | -5.78008 | 108.10994 | 25938 ft | 417 kts | 212° |
| 2026-04-15 22:10 | -5.80401 | 108.09355 | 25451 ft | 415 kts | 212° |
| 2026-04-15 22:10 | -5.82783 | 108.07724 | 24967 ft | 414 kts | 212° |
| 2026-04-15 22:10 | -5.85155 | 108.06100 | 24491 ft | 412 kts | 212° |
| 2026-04-15 22:10 | -5.87520 | 108.04479 | 24019 ft | 411 kts | 212° |
| 2026-04-15 22:11 | -5.89879 | 108.02864 | 23556 ft | 410 kts | 213° |
| 2026-04-15 22:11 | -5.92225 | 108.01250 | 23014 ft | 408 kts | 214° |
| 2026-04-15 22:11 | -5.94290 | 107.99303 | 22433 ft | 410 kts | 232° |
| 2026-04-15 22:11 | -5.95634 | 107.96797 | 21991 ft | 408 kts | 251° |
| 2026-04-15 22:12 | -5.96126 | 107.94018 | 21625 ft | 403 kts | 268° |
| 2026-04-15 22:12 | -5.96138 | 107.91215 | 21204 ft | 400 kts | 269° |
| 2026-04-15 22:12 | -5.96158 | 107.88427 | 20739 ft | 398 kts | 269° |
| 2026-04-15 22:12 | -5.96165 | 107.85658 | 20290 ft | 396 kts | 270° |
| 2026-04-15 22:13 | -5.96168 | 107.82894 | 19843 ft | 394 kts | 270° |
| 2026-04-15 22:13 | -5.96169 | 107.80149 | 19404 ft | 392 kts | 270° |
| 2026-04-15 22:13 | -5.96169 | 107.77414 | 18965 ft | 391 kts | 270° |
| 2026-04-15 22:13 | -5.96168 | 107.74690 | 18527 ft | 389 kts | 270° |
| 2026-04-15 22:14 | -5.96168 | 107.71974 | 18075 ft | 388 kts | 270° |
| 2026-04-15 22:14 | -5.96168 | 107.70180 | 17750 ft | 387 kts | 270° |
| 2026-04-15 22:14 | -5.96168 | 107.67483 | 17293 ft | 384 kts | 270° |
| 2026-04-15 22:14 | -5.96167 | 107.64812 | 16826 ft | 382 kts | 270° |
| 2026-04-15 22:15 | -5.96169 | 107.61268 | 16157 ft | 381 kts | 270° |
| 2026-04-15 22:15 | -5.96169 | 107.58615 | 15711 ft | 379 kts | 270° |
| 2026-04-15 22:15 | -5.96169 | 107.55972 | 15255 ft | 377 kts | 270° |
| 2026-04-15 22:15 | -5.96170 | 107.53346 | 14798 ft | 375 kts | 270° |
| 2026-04-15 22:16 | -5.96170 | 107.50727 | 14342 ft | 374 kts | 270° |
| 2026-04-15 22:16 | -5.96170 | 107.48963 | 14037 ft | 373 kts | 270° |
| 2026-04-15 22:16 | -5.96170 | 107.46360 | 13563 ft | 372 kts | 270° |
| 2026-04-15 22:16 | -5.96169 | 107.43773 | 13049 ft | 366 kts | 270° |
| 2026-04-15 22:17 | -5.96169 | 107.41269 | 12607 ft | 351 kts | 270° |
| 2026-04-15 22:17 | -5.96168 | 107.38865 | 12193 ft | 338 kts | 270° |
| 2026-04-15 22:17 | -5.96168 | 107.36581 | 11846 ft | 324 kts | 270° |
| 2026-04-15 22:17 | -5.96167 | 107.34363 | 11519 ft | 311 kts | 270° |
| 2026-04-15 22:18 | -5.96167 | 107.32198 | 11161 ft | 301 kts | 270° |
| 2026-04-15 22:18 | -5.96164 | 107.30130 | 10764 ft | 293 kts | 270° |
| 2026-04-15 22:18 | -5.96162 | 107.28109 | 10366 ft | 286 kts | 270° |
| 2026-04-15 22:18 | -5.96160 | 107.26136 | 10001 ft | 279 kts | 270° |
| 2026-04-15 22:19 | -5.96157 | 107.24213 | 9632 ft | 272 kts | 270° |
| 2026-04-15 22:19 | -5.96156 | 107.22334 | 9249 ft | 266 kts | 270° |
| 2026-04-15 22:19 | -5.96153 | 107.20470 | 8902 ft | 268 kts | 270° |
| 2026-04-15 22:19 | -5.96151 | 107.18591 | 8567 ft | 270 kts | 270° |
| 2026-04-15 22:20 | -5.96148 | 107.16727 | 8213 ft | 271 kts | 270° |
| 2026-04-15 22:20 | -5.96146 | 107.14802 | 7858 ft | 272 kts | 270° |
| 2026-04-15 22:20 | -5.96143 | 107.12895 | 7504 ft | 274 kts | 270° |
| 2026-04-15 22:20 | -5.96141 | 107.11007 | 7147 ft | 275 kts | 269° |
| 2026-04-15 22:21 | -5.96506 | 107.09134 | 6787 ft | 275 kts | 248° |
| 2026-04-15 22:21 | -5.97223 | 107.07356 | 6482 ft | 274 kts | 248° |
| 2026-04-15 22:21 | -5.97918 | 107.05578 | 6182 ft | 273 kts | 248° |
| 2026-04-15 22:21 | -5.98609 | 107.03805 | 5862 ft | 272 kts | 249° |
| 2026-04-15 22:22 | -5.99299 | 107.02038 | 5557 ft | 271 kts | 249° |
| 2026-04-15 22:22 | -5.99986 | 107.00277 | 5258 ft | 270 kts | 248° |
| 2026-04-15 22:22 | -6.00670 | 106.98524 | 4964 ft | 269 kts | 248° |
| 2026-04-15 22:22 | -6.01351 | 106.96778 | 4676 ft | 268 kts | 248° |
| 2026-04-15 22:23 | -6.02029 | 106.95040 | 4362 ft | 267 kts | 248° |
| 2026-04-15 22:23 | -6.02703 | 106.93306 | 4042 ft | 267 kts | 248° |
| 2026-04-15 22:23 | -6.03393 | 106.91559 | 3553 ft | 273 kts | 248° |
| 2026-04-15 22:23 | -6.04108 | 106.89765 | 3082 ft | 278 kts | 248° |
| 2026-04-15 22:24 | -6.04806 | 106.88014 | 2997 ft | 259 kts | 248° |
| 2026-04-15 22:24 | -6.05447 | 106.86409 | 3072 ft | 236 kts | 248° |
| 2026-04-15 22:24 | -6.06033 | 106.84944 | 3053 ft | 216 kts | 248° |
| 2026-04-15 22:24 | -6.06568 | 106.83604 | 3039 ft | 198 kts | 248° |
| 2026-04-15 22:25 | -6.07075 | 106.82335 | 2950 ft | 195 kts | 248° |
| 2026-04-15 22:25 | -6.07578 | 106.81075 | 2726 ft | 194 kts | 248° |
| 2026-04-15 22:25 | -6.08080 | 106.79819 | 2497 ft | 193 kts | 248° |
| 2026-04-15 22:25 | -6.08578 | 106.78571 | 2265 ft | 192 kts | 248° |
| 2026-04-15 22:26 | -6.09073 | 106.77332 | 2024 ft | 190 kts | 248° |
| 2026-04-15 22:26 | -6.09551 | 106.76136 | 1804 ft | 175 kts | 248° |
| 2026-04-15 22:26 | -6.09990 | 106.75039 | 1590 ft | 167 kts | 248° |
| 2026-04-15 22:26 | -6.10422 | 106.73958 | 1360 ft | 166 kts | 248° |
| 2026-04-15 22:27 | -6.10837 | 106.72920 | 1187 ft | 154 kts | 248° |
| 2026-04-15 22:27 | -6.11227 | 106.71943 | 969 ft | 148 kts | 247° |
| 2026-04-15 22:27 | -6.11607 | 106.70990 | 798 ft | 146 kts | 246° |
| 2026-04-15 22:27 | -6.11985 | 106.70044 | 624 ft | 146 kts | 248° |
| 2026-04-15 22:28 | -6.12365 | 106.69093 | 430 ft | 147 kts | 247° |
| 2026-04-15 22:28 | -6.12747 | 106.68139 | 224 ft | 147 kts | 247° |
| 2026-04-15 22:28 | -6.13126 | 106.67190 | 61 ft | 144 kts | 247° |
| 2026-04-15 22:28 | -6.13452 | 106.66372 | 44 ft | 95 kts | 248° |
| 2026-04-15 22:29 | -6.13611 | 106.65975 | 41 ft | 32 kts | 248° |
| 2026-04-15 22:29 | -6.13611 | 106.65796 | 40 ft | 27 kts | 282° |
| 2026-04-15 22:29 | -6.13552 | 106.65678 | 38 ft | 21 kts | 330° |
| 2026-04-15 22:29 | -6.13415 | 106.65618 | 41 ft | 21 kts | 334° |
| 2026-04-15 22:30 | -6.13313 | 106.65589 | 40 ft | 16 kts | 33° |
| 2026-04-15 22:30 | -6.13301 | 106.65597 | 40 ft | 0 kts | 36° |